createdAt,value
2019-05-10T00:01:21.991Z,2.93
2019-05-10T00:04:08.735Z,2.87
2019-05-10T00:06:55.240Z,2.97
2019-05-10T00:09:23.259Z,3.40
2019-05-10T00:11:54.081Z,3.60
2019-05-10T00:14:30.157Z,3.70
2019-05-10T00:17:00.429Z,3.77
2019-05-10T00:19:29.093Z,3.70
2019-05-10T00:22:17.245Z,3.80
2019-05-10T00:25:02.345Z,3.73
2019-05-10T00:27:17.661Z,3.63
2019-05-10T00:30:06.861Z,4.13
2019-05-10T00:32:35.421Z,4.23
2019-05-10T00:35:23.416Z,3.40
2019-05-10T00:37:51.986Z,3.30
2019-05-10T00:40:20.640Z,3.93
2019-05-10T00:42:49.282Z,3.97
2019-05-10T00:45:18.007Z,3.63
2019-05-10T00:47:46.645Z,3.30
2019-05-10T00:50:15.472Z,3.57
2019-05-10T00:52:44.035Z,4.40
2019-05-10T00:55:18.911Z,3.73
2019-05-10T00:57:42.969Z,3.83
2019-05-10T01:00:11.799Z,3.70
2019-05-10T01:02:40.433Z,4.40
2019-05-10T01:05:09.440Z,3.67
2019-05-10T01:07:37.989Z,4.00
2019-05-10T01:10:08.225Z,4.60
2019-05-10T01:12:36.841Z,4.27
2019-05-10T01:15:09.279Z,4.57
2019-05-10T01:17:37.840Z,4.63
2019-05-10T01:20:08.346Z,4.50
2019-05-10T01:22:37.037Z,4.30
2019-05-10T01:25:07.369Z,3.97
2019-05-10T01:27:36.077Z,4.20
2019-05-10T01:30:07.173Z,4.50
2019-05-10T01:32:36.073Z,3.77
2019-05-10T01:35:25.526Z,3.90
2019-05-10T01:37:54.097Z,4.00
2019-05-10T01:40:22.746Z,4.20
2019-05-10T01:42:57.430Z,4.50
2019-05-10T01:45:26.156Z,3.80
2019-05-10T01:47:54.877Z,4.20
2019-05-10T01:50:25.069Z,3.90
2019-05-10T01:53:13.029Z,4.00
2019-05-10T01:55:51.379Z,4.17
2019-05-10T01:58:11.833Z,5.27
2019-05-10T02:00:40.589Z,4.00
2019-05-10T02:03:28.574Z,3.90
2019-05-10T02:05:57.168Z,4.03
2019-05-10T02:08:45.134Z,4.60
2019-05-10T02:11:33.133Z,4.10
2019-05-10T02:14:03.338Z,4.30
2019-05-10T02:16:32.037Z,4.20
2019-05-10T02:19:20.042Z,3.97
2019-05-10T02:21:48.699Z,4.20
2019-05-10T02:24:17.515Z,4.03
2019-05-10T02:26:46.142Z,4.00
2019-05-10T02:29:14.799Z,4.37
2019-05-10T02:31:43.504Z,4.30
2019-05-10T02:34:12.169Z,4.50
2019-05-10T02:36:40.709Z,4.33
2019-05-10T02:39:09.565Z,4.33
2019-05-10T02:41:38.264Z,4.50
2019-05-10T02:44:06.968Z,4.67
2019-05-10T02:46:35.710Z,4.90
2019-05-10T02:49:04.443Z,4.50
2019-05-10T02:51:33.167Z,4.90
2019-05-10T02:54:02.163Z,4.60
2019-05-10T02:56:32.193Z,4.70
2019-05-10T02:59:01.480Z,5.27
2019-05-10T03:01:50.949Z,5.10
2019-05-10T03:04:39.011Z,6.07
2019-05-10T03:07:26.926Z,5.73
2019-05-10T03:09:55.513Z,4.67
2019-05-10T03:12:26.402Z,5.80
2019-05-10T03:14:57.885Z,5.73
2019-05-10T03:17:46.753Z,5.77
2019-05-10T03:20:36.216Z,5.87
2019-05-10T03:23:25.689Z,5.93
2019-05-10T03:25:54.292Z,6.67
2019-05-10T03:28:23.079Z,5.73
2019-05-10T03:30:51.930Z,5.47
2019-05-10T03:33:39.876Z,4.47
2019-05-10T03:36:08.911Z,4.60
2019-05-10T03:38:38.101Z,4.50
2019-05-10T03:41:06.829Z,4.33
2019-05-10T03:43:35.492Z,4.07
2019-05-10T03:46:04.197Z,4.50
2019-05-10T03:48:52.189Z,4.70
2019-05-10T03:51:20.883Z,3.97
2019-05-10T03:53:49.643Z,4.30
2019-05-10T03:56:18.269Z,4.77
2019-05-10T03:58:46.929Z,4.60
2019-05-10T04:01:15.630Z,4.57
2019-05-10T04:03:44.185Z,4.40
2019-05-10T04:06:12.913Z,4.30
2019-05-10T04:09:01.010Z,4.17
2019-05-10T04:11:29.564Z,6.10
2019-05-10T04:13:58.222Z,5.80
2019-05-10T04:16:28.307Z,4.57
2019-05-10T04:18:56.857Z,3.80
2019-05-10T04:21:25.505Z,3.63
2019-05-10T04:24:13.440Z,3.60
2019-05-10T04:26:42.015Z,4.77
2019-05-10T04:29:10.660Z,4.97
2019-05-10T04:31:39.282Z,5.47
2019-05-10T04:34:07.972Z,4.67
2019-05-10T04:36:36.585Z,5.10
2019-05-10T04:39:06.567Z,4.80
2019-05-10T04:41:35.219Z,4.77
2019-05-10T04:44:04.116Z,4.27
2019-05-10T04:46:32.704Z,4.50
2019-05-10T04:49:01.252Z,4.40
2019-05-10T04:51:29.917Z,4.10
2019-05-10T04:53:58.483Z,3.53
2019-05-10T04:56:27.141Z,3.60
2019-05-10T04:58:55.704Z,3.93
2019-05-10T05:01:24.357Z,4.30
2019-05-10T05:03:54.452Z,4.43
2019-05-10T05:06:23.170Z,3.93
2019-05-10T05:08:51.788Z,3.73
2019-05-10T05:11:20.457Z,4.33
2019-05-10T05:13:49.094Z,4.30
2019-05-10T05:16:19.283Z,4.37
2019-05-10T05:18:47.930Z,4.20
2019-05-10T05:21:16.498Z,4.90
2019-05-10T05:23:45.054Z,5.03
2019-05-10T05:26:13.633Z,4.60
2019-05-10T05:28:42.200Z,5.57
2019-05-10T05:31:10.797Z,5.93
2019-05-10T05:33:39.360Z,5.43
2019-05-10T05:36:08.061Z,5.13
2019-05-10T05:38:40.317Z,5.60
2019-05-10T05:41:26.453Z,6.63
2019-05-10T05:43:55.017Z,5.43
2019-05-10T05:46:23.610Z,5.17
2019-05-10T05:48:52.244Z,5.60
2019-05-10T05:51:20.967Z,5.43
2019-05-10T05:53:49.626Z,5.10
2019-05-10T05:56:18.501Z,5.33
2019-05-10T05:58:47.259Z,5.67
2019-05-10T06:01:24.706Z,4.57
2019-05-10T06:03:46.399Z,4.73
2019-05-10T06:06:21.493Z,4.77
2019-05-10T06:08:45.271Z,4.93
2019-05-10T06:11:14.045Z,4.80
2019-05-10T06:13:42.629Z,5.93
2019-05-10T06:16:12.785Z,5.30
2019-05-10T06:18:46.915Z,4.93
2019-05-10T06:21:11.942Z,5.00
2019-05-10T06:23:40.580Z,4.30
2019-05-10T06:26:21.398Z,4.97
2019-05-10T06:31:09.833Z,4.60
2019-05-10T06:33:39.744Z,4.70
2019-05-10T06:36:08.744Z,4.00
2019-05-10T06:38:37.532Z,4.43
2019-05-10T06:41:09.984Z,4.33
2019-05-10T06:43:36.627Z,4.20
2019-05-10T06:46:05.181Z,5.00
2019-05-10T06:48:34.035Z,5.00
2019-05-10T06:51:09.346Z,5.17
2019-05-10T06:53:36.587Z,4.73
2019-05-10T06:56:41.707Z,5.23
2019-05-10T07:01:56.525Z,5.10
2019-05-10T07:04:35.099Z,4.43
2019-05-10T07:07:00.717Z,4.07
2019-05-10T07:10:00.615Z,4.17
2019-05-10T07:12:03.546Z,4.13
2019-05-10T07:14:32.495Z,4.40
2019-05-10T07:17:04.416Z,3.83
2019-05-10T07:19:35.059Z,3.70
2019-05-10T07:22:03.489Z,3.73
2019-05-10T07:24:32.121Z,3.33
2019-05-10T07:27:05.719Z,3.00
2019-05-10T07:29:42.705Z,3.63
2019-05-10T07:32:08.722Z,3.40
2019-05-10T07:35:00.773Z,3.40
2019-05-10T07:37:27.354Z,3.27
2019-05-10T07:40:15.827Z,3.67
2019-05-10T07:42:45.495Z,3.23
2019-05-10T07:45:18.833Z,2.93
2019-05-10T07:47:45.099Z,3.63
2019-05-10T07:50:14.332Z,2.80
2019-05-10T07:52:45.445Z,3.10
2019-05-10T07:55:18.619Z,3.30
2019-05-10T07:58:05.029Z,2.70
2019-05-10T08:00:38.019Z,3.20
2019-05-10T08:03:13.155Z,3.10
2019-05-10T08:05:35.245Z,2.87
2019-05-10T08:08:23.178Z,2.90
2019-05-10T08:10:51.808Z,2.57
2019-05-10T08:13:39.753Z,2.60
2019-05-10T08:16:29.009Z,2.37
2019-05-10T08:19:01.043Z,2.43
2019-05-10T08:21:28.033Z,2.30
2019-05-10T08:23:59.032Z,2.70
2019-05-10T08:26:26.981Z,2.60
2019-05-10T08:28:55.645Z,2.70
2019-05-10T08:31:26.437Z,3.10
2019-05-10T08:33:58.722Z,3.13
2019-05-10T08:36:24.946Z,3.17
2019-05-10T08:39:03.846Z,3.90
2019-05-10T08:41:45.835Z,2.90
2019-05-10T08:44:19.236Z,3.20
2019-05-10T08:46:45.272Z,2.93
2019-05-10T08:49:13.938Z,3.20
2019-05-10T08:51:47.787Z,3.00
2019-05-10T08:54:32.821Z,3.30
2019-05-10T08:57:05.380Z,4.23
2019-05-10T08:59:33.981Z,3.03
2019-05-10T09:02:05.691Z,2.43
2019-05-10T09:04:48.787Z,3.13
2019-05-10T09:07:12.273Z,3.53
2019-05-10T09:09:49.472Z,3.20
2019-05-10T09:12:12.305Z,3.50
2019-05-10T09:14:42.614Z,3.60
2019-05-10T09:17:14.730Z,2.97
2019-05-10T09:19:44.240Z,3.07
2019-05-10T09:22:33.859Z,3.10
2019-05-10T09:25:29.158Z,2.90
2019-05-10T09:27:53.152Z,3.23
2019-05-10T09:30:35.604Z,3.87
2019-05-10T09:33:08.496Z,3.43
2019-05-10T09:35:33.722Z,3.30
2019-05-10T09:38:02.364Z,3.30
2019-05-10T09:40:32.710Z,3.67
2019-05-10T09:43:05.261Z,2.97
2019-05-10T09:45:32.406Z,2.97
2019-05-10T09:48:02.548Z,3.07
2019-05-10T09:50:41.374Z,3.07
2019-05-10T09:53:01.717Z,2.90
2019-05-10T09:55:31.785Z,3.57
2019-05-10T09:58:00.432Z,2.90
2019-05-10T10:00:33.739Z,3.10
2019-05-10T10:03:03.565Z,2.80
2019-05-10T10:05:32.291Z,2.93
2019-05-10T10:08:03.818Z,2.47
2019-05-10T10:10:50.539Z,2.03
2019-05-10T10:13:35.878Z,2.30
2019-05-10T10:15:52.025Z,2.93
2019-05-10T10:18:25.036Z,2.70
2019-05-10T10:20:49.935Z,2.40
2019-05-10T10:23:18.502Z,2.50
2019-05-10T10:25:48.364Z,2.13
2019-05-10T10:28:19.082Z,2.70
2019-05-10T10:30:50.492Z,1.80
2019-05-10T10:33:25.201Z,2.20
2019-05-10T10:35:49.210Z,1.80
2019-05-10T10:38:18.020Z,2.13
2019-05-10T10:40:46.716Z,1.97
2019-05-10T10:43:17.821Z,2.10
2019-05-10T10:45:45.759Z,1.90
2019-05-10T10:48:14.297Z,2.27
2019-05-10T10:50:44.229Z,1.80
2019-05-10T10:53:13.349Z,2.07
2019-05-10T10:55:48.519Z,2.07
2019-05-10T10:58:12.366Z,1.60
2019-05-10T11:00:41.033Z,2.10
2019-05-10T11:03:09.669Z,1.90
2019-05-10T11:05:38.329Z,2.63
2019-05-10T11:08:06.957Z,2.53
2019-05-10T11:10:35.717Z,2.43
2019-05-10T11:13:11.986Z,2.67
2019-05-10T11:15:36.251Z,2.27
2019-05-10T11:18:05.080Z,2.43
2019-05-10T11:20:33.805Z,2.33
2019-05-10T11:23:02.368Z,1.83
2019-05-10T11:25:31.299Z,1.93
2019-05-10T11:28:01.780Z,1.63
2019-05-10T11:30:32.262Z,1.77
2019-05-10T11:33:00.554Z,1.97
2019-05-10T11:35:32.025Z,2.00
2019-05-10T11:38:01.162Z,2.17
2019-05-10T11:40:34.866Z,2.57
2019-05-10T11:43:01.731Z,1.90
2019-05-10T11:45:34.262Z,1.70
2019-05-10T11:48:02.215Z,1.87
2019-05-10T11:50:35.107Z,1.60
2019-05-10T11:53:06.942Z,1.30
2019-05-10T11:55:35.714Z,1.50
2019-05-10T11:58:08.723Z,1.67
2019-05-10T12:00:34.868Z,1.73
2019-05-10T12:03:11.471Z,1.80
2019-05-10T12:05:33.773Z,1.80
2019-05-10T12:08:02.415Z,1.43
2019-05-10T12:10:32.024Z,1.87
2019-05-10T12:15:31.986Z,1.50
2019-05-10T12:18:04.560Z,2.00
2019-05-10T12:23:03.208Z,1.10
2019-05-10T12:25:46.313Z,1.40
2019-05-10T12:26:31.162Z,1.57
2019-05-10T12:26:47.875Z,1.40
2019-05-10T12:28:01.917Z,1.57
2019-05-10T12:30:34.865Z,1.30
2019-05-10T12:33:25.046Z,1.30
2019-05-10T12:35:51.074Z,1.20
2019-05-10T12:38:23.520Z,1.30
2019-05-10T12:41:09.393Z,1.17
2019-05-10T12:43:38.023Z,1.20
2019-05-10T12:46:06.761Z,1.50
2019-05-10T12:48:35.844Z,1.10
2019-05-10T12:51:11.326Z,1.40
2019-05-10T12:53:36.791Z,1.20
2019-05-10T12:56:24.887Z,1.50
2019-05-10T12:58:57.552Z,1.60
2019-05-10T13:01:25.764Z,1.43
2019-05-10T13:03:54.173Z,1.50
2019-05-10T13:06:22.902Z,0.90
2019-05-10T13:08:51.538Z,1.20
2019-05-10T13:11:25.410Z,1.27
2019-05-10T13:13:51.941Z,1.20
2019-05-10T13:16:41.401Z,1.00
2019-05-10T13:19:14.133Z,0.90
2019-05-10T13:21:40.350Z,1.47
2019-05-10T13:24:09.078Z,0.90
2019-05-10T13:26:37.673Z,1.17
2019-05-10T13:29:07.915Z,1.33
2019-05-10T13:31:41.717Z,1.10
2019-05-10T13:34:06.990Z,1.07
2019-05-10T13:36:37.281Z,0.87
2019-05-10T13:39:06.778Z,1.17
2019-05-10T13:41:35.539Z,1.50
2019-05-10T13:44:06.231Z,1.27
2019-05-10T13:46:35.286Z,1.20
2019-05-10T13:49:03.938Z,1.20
2019-05-10T13:51:33.309Z,1.20
2019-05-10T13:54:04.821Z,1.40
2019-05-10T13:56:32.250Z,1.03
2019-05-10T13:59:13.679Z,1.17
2019-05-10T14:01:31.050Z,1.47
2019-05-10T14:04:01.074Z,1.33
2019-05-10T14:06:29.926Z,1.20
2019-05-10T14:08:58.585Z,1.20
2019-05-10T14:11:27.144Z,1.30
2019-05-10T14:13:55.728Z,1.00
2019-05-10T14:16:24.293Z,1.00
2019-05-10T14:18:55.177Z,1.00
2019-05-10T14:21:23.707Z,1.13
2019-05-10T14:23:52.301Z,1.20
2019-05-10T14:26:20.933Z,1.20
2019-05-10T14:28:53.173Z,0.80
2019-05-10T14:31:19.813Z,0.97
2019-05-10T14:34:15.864Z,1.00
2019-05-10T14:36:40.845Z,0.90
2019-05-10T14:39:08.702Z,0.90
2019-05-10T14:41:39.834Z,1.03
2019-05-10T14:44:07.574Z,1.17
2019-05-10T14:46:36.132Z,1.23
2019-05-10T14:49:09.792Z,1.40
2019-05-10T14:51:44.323Z,1.10
2019-05-10T14:54:08.748Z,1.30
2019-05-10T14:56:35.693Z,1.30
2019-05-10T14:59:04.426Z,1.70
2019-05-10T15:01:36.878Z,1.33
2019-05-10T15:04:03.377Z,1.33
2019-05-10T15:06:36.817Z,1.30
2019-05-10T15:09:02.178Z,0.90
2019-05-10T15:11:31.748Z,1.20
2019-05-10T15:14:01.068Z,1.20
2019-05-10T15:16:30.820Z,1.43
2019-05-10T15:18:59.702Z,1.10
2019-05-10T15:21:28.330Z,1.07
2019-05-10T15:24:00.837Z,1.23
2019-05-10T15:26:27.332Z,0.93
2019-05-10T15:28:55.933Z,1.33
2019-05-10T15:31:29.398Z,1.20
2019-05-10T15:33:54.807Z,1.10
2019-05-10T15:36:23.646Z,1.50
2019-05-10T15:38:53.677Z,1.50
2019-05-10T15:41:23.697Z,0.90
2019-05-10T15:43:53.533Z,1.30
2019-05-10T15:46:23.465Z,1.20
2019-05-10T15:48:53.295Z,1.03
2019-05-10T15:51:41.264Z,1.10
2019-05-10T15:54:09.865Z,1.00
2019-05-10T15:56:41.508Z,1.30
2019-05-10T15:59:12.731Z,1.00
2019-05-10T16:01:38.864Z,1.10
2019-05-10T16:04:07.608Z,0.90
2019-05-10T16:06:37.613Z,1.00
2019-05-10T16:09:16.955Z,1.20
2019-05-10T16:12:02.379Z,0.80
2019-05-10T16:14:27.718Z,1.03
2019-05-10T16:16:57.893Z,1.00
2019-05-10T16:19:26.480Z,1.30
2019-05-10T16:21:58.032Z,1.83
2019-05-10T16:24:27.675Z,1.50
2019-05-10T16:27:14.910Z,1.40
2019-05-10T16:29:43.508Z,1.10
2019-05-10T16:32:12.201Z,1.10
2019-05-10T16:34:40.799Z,1.40
2019-05-10T16:37:09.496Z,1.10
2019-05-10T16:39:38.168Z,1.20
2019-05-10T16:42:06.820Z,1.27
2019-05-10T16:44:35.785Z,1.20
2019-05-10T16:47:04.489Z,1.53
2019-05-10T16:49:33.153Z,1.40
2019-05-10T16:52:01.723Z,1.40
2019-05-10T16:54:30.645Z,1.27
2019-05-10T16:57:01.100Z,1.17
2019-05-10T16:59:31.232Z,1.03
2019-05-10T17:02:04.447Z,1.13
2019-05-10T17:04:32.179Z,1.20
2019-05-10T17:07:00.244Z,1.40
2019-05-10T17:09:28.828Z,1.13
2019-05-10T17:11:59.169Z,1.63
2019-05-10T17:14:28.038Z,1.70
2019-05-10T17:16:58.830Z,2.50
2019-05-10T17:19:27.798Z,1.37
2019-05-10T17:21:57.297Z,1.20
2019-05-10T17:24:25.861Z,1.20
2019-05-10T17:26:54.523Z,1.30
2019-05-10T17:29:23.228Z,1.20
2019-05-10T17:31:51.817Z,1.80
2019-05-10T17:34:29.145Z,1.20
2019-05-10T17:37:10.022Z,1.20
2019-05-10T17:39:38.581Z,1.20
2019-05-10T17:42:07.183Z,1.23
2019-05-10T17:44:35.740Z,1.20
2019-05-10T17:47:04.461Z,1.20
2019-05-10T17:49:33.090Z,1.20
2019-05-10T17:52:01.712Z,1.73
2019-05-10T17:54:33.706Z,1.20
2019-05-10T17:57:00.581Z,1.40
2019-05-10T17:59:29.141Z,1.20
2019-05-10T18:01:57.803Z,1.70
2019-05-10T18:04:26.424Z,1.33
2019-05-10T18:06:55.017Z,1.80
2019-05-10T18:09:23.577Z,1.63
2019-05-10T18:11:52.255Z,1.90
2019-05-10T18:14:20.817Z,1.60
2019-05-10T18:17:08.865Z,1.73
2019-05-10T18:19:37.388Z,1.70
2019-05-10T18:22:06.602Z,1.50
2019-05-10T18:24:37.273Z,1.50
2019-05-10T18:27:05.561Z,2.00
2019-05-10T18:29:34.268Z,1.57
2019-05-10T18:32:02.858Z,2.00
2019-05-10T18:34:33.236Z,1.83
2019-05-10T18:37:01.778Z,1.77
2019-05-10T18:39:30.414Z,2.20
2019-05-10T18:41:59.004Z,1.67
2019-05-10T18:44:27.560Z,1.97
2019-05-10T18:46:56.161Z,1.57
2019-05-10T18:49:44.138Z,1.37
2019-05-10T18:52:12.797Z,1.50
2019-05-10T18:54:41.446Z,1.33
2019-05-10T18:57:12.223Z,1.70
2019-05-10T18:59:45.378Z,1.50
2019-05-10T19:02:11.730Z,1.73
2019-05-10T19:04:45.815Z,1.60
2019-05-10T19:07:11.286Z,1.30
2019-05-10T19:09:39.832Z,1.57
2019-05-10T19:12:17.568Z,1.60
2019-05-10T19:14:38.924Z,1.37
2019-05-10T19:17:09.333Z,1.80
2019-05-10T19:19:41.984Z,1.60
2019-05-10T19:22:09.270Z,1.97
2019-05-10T19:24:38.684Z,1.73
2019-05-10T19:27:09.189Z,1.90
2019-05-10T19:29:38.866Z,1.93
2019-05-10T19:32:11.603Z,2.20
2019-05-10T19:34:37.995Z,2.20
2019-05-10T19:37:06.548Z,1.40
2019-05-10T19:39:35.216Z,1.63
2019-05-10T19:42:06.154Z,1.87
2019-05-10T19:44:34.612Z,1.30
2019-05-10T19:47:23.887Z,1.90
2019-05-10T19:49:53.571Z,1.87
2019-05-10T19:52:26.127Z,1.80
2019-05-10T19:54:52.698Z,1.50
2019-05-10T19:57:21.329Z,1.73
2019-05-10T19:59:50.312Z,1.83
2019-05-10T20:02:18.944Z,1.47
2019-05-10T20:04:47.599Z,1.43
2019-05-10T20:07:45.465Z,1.50
2019-05-10T20:10:07.810Z,1.97
2019-05-10T20:12:36.883Z,1.60
2019-05-10T20:15:07.422Z,2.07
2019-05-10T20:17:36.045Z,1.77
2019-05-10T20:20:06.913Z,2.00
2019-05-10T20:22:36.363Z,2.07
2019-05-10T20:25:06.565Z,1.80
2019-05-10T20:27:54.537Z,2.67
2019-05-10T20:30:23.294Z,1.50
2019-05-10T20:32:51.948Z,2.17
2019-05-10T20:35:20.581Z,1.90
2019-05-10T20:38:01.218Z,2.00
2019-05-10T20:40:19.448Z,1.80
2019-05-10T20:42:48.009Z,1.83
2019-05-10T20:45:16.735Z,1.93
2019-05-10T20:47:45.433Z,1.80
2019-05-10T20:50:14.370Z,1.83
2019-05-10T20:53:02.340Z,2.20
2019-05-10T20:55:30.933Z,2.40
2019-05-10T20:58:18.902Z,2.07
2019-05-10T21:00:47.602Z,1.90
2019-05-10T21:03:16.143Z,1.70
2019-05-10T21:05:44.733Z,1.60
2019-05-10T21:08:17.070Z,2.00
2019-05-10T21:10:43.546Z,2.03
2019-05-10T21:13:12.109Z,1.80
2019-05-10T21:15:40.769Z,1.80
2019-05-10T21:18:09.398Z,1.90
2019-05-10T21:20:38.071Z,2.40
2019-05-10T21:23:06.613Z,2.60
2019-05-10T21:25:35.443Z,1.83
2019-05-10T21:28:04.141Z,2.00
2019-05-10T21:30:32.735Z,2.10
2019-05-10T21:33:01.362Z,2.10
2019-05-10T21:35:30.078Z,1.93
2019-05-10T21:37:58.649Z,2.27
2019-05-10T21:40:27.244Z,2.57
2019-05-10T21:42:55.878Z,2.30
2019-05-10T21:45:43.878Z,2.30
2019-05-10T21:48:12.505Z,2.37
2019-05-10T21:50:41.105Z,2.40
2019-05-10T21:53:09.724Z,2.90
2019-05-10T21:55:38.453Z,3.23
2019-05-10T21:58:07.013Z,3.67
2019-05-10T22:00:37.250Z,4.03
2019-05-10T22:03:25.208Z,2.87
2019-05-10T22:05:53.871Z,11.97
2019-05-10T22:08:22.572Z,9.07
2019-05-10T22:10:51.161Z,6.73
2019-05-10T22:13:39.132Z,4.50
2019-05-10T22:16:07.865Z,2.30
2019-05-10T22:18:38.196Z,2.77
2019-05-10T22:21:06.793Z,2.30
2019-05-10T22:23:35.353Z,2.30
2019-05-10T22:26:04.122Z,2.90
2019-05-10T22:28:52.082Z,3.07
2019-05-10T22:31:20.741Z,2.70
2019-05-10T22:33:49.434Z,2.30
2019-05-10T22:36:18.101Z,3.10
2019-05-10T22:38:46.794Z,3.33
2019-05-10T22:41:15.956Z,3.30
2019-05-10T22:44:04.017Z,3.50
2019-05-10T22:46:52.021Z,3.67
2019-05-10T22:49:40.009Z,3.13
2019-05-10T22:52:08.643Z,3.83
2019-05-10T22:54:38.769Z,4.50
2019-05-10T22:57:26.737Z,4.40
2019-05-10T22:59:55.398Z,3.60
2019-05-10T23:02:24.101Z,3.57
2019-05-10T23:04:52.834Z,4.13
2019-05-10T23:07:40.837Z,4.07
2019-05-10T23:10:28.760Z,3.70
2019-05-10T23:13:16.868Z,3.00
2019-05-10T23:15:45.562Z,4.27
2019-05-10T23:18:14.191Z,4.47
2019-05-10T23:20:42.789Z,3.50
2019-05-10T23:23:11.435Z,3.10
2019-05-10T23:25:40.265Z,3.87
2019-05-10T23:28:08.831Z,3.03
2019-05-10T23:30:56.828Z,3.27
2019-05-10T23:33:25.390Z,3.30
2019-05-10T23:35:55.529Z,3.20
2019-05-10T23:38:24.156Z,3.67
2019-05-10T23:41:12.081Z,3.10
2019-05-10T23:43:40.714Z,3.97
2019-05-10T23:46:09.305Z,5.47
2019-05-10T23:48:37.933Z,3.60
2019-05-10T23:51:06.592Z,3.60
2019-05-10T23:53:54.558Z,3.17
2019-05-10T23:56:23.221Z,2.93
2019-05-10T23:58:51.783Z,3.57
